sensor_id;sensor_type;location;lat;lon;timestamp;P1;durP1;ratioP1;P2;durP2;ratioP2
4738;SDS011;2383;48.632;10.156;2023-04-01T00:00:39;2.60;;;0.80;;
4738;SDS011;2383;48.632;10.156;2023-04-01T00:04:41;1.00;;;0.90;;
4738;SDS011;2383;48.632;10.156;2023-04-01T00:08:43;1.80;;;0.77;;
4738;SDS011;2383;48.632;10.156;2023-04-01T00:12:46;4.40;;;1.20;;
4738;SDS011;2383;48.632;10.156;2023-04-01T00:16:48;2.77;;;0.90;;
4738;SDS011;2383;48.632;10.156;2023-04-01T00:20:50;1.70;;;1.00;;
4738;SDS011;2383;48.632;10.156;2023-04-01T00:24:53;2.07;;;0.83;;
4738;SDS011;2383;48.632;10.156;2023-04-01T00:28:55;2.63;;;1.10;;
4738;SDS011;2383;48.632;10.156;2023-04-01T00:32:57;2.03;;;0.80;;
4738;SDS011;2383;48.632;10.156;2023-04-01T00:36:59;2.30;;;0.90;;
4738;SDS011;2383;48.632;10.156;2023-04-01T00:41:01;0.77;;;0.70;;
4738;SDS011;2383;48.632;10.156;2023-04-01T00:45:23;3.17;;;0.90;;
4738;SDS011;2383;48.632;10.156;2023-04-01T00:49:31;2.33;;;0.80;;
4738;SDS011;2383;48.632;10.156;2023-04-01T00:53:39;1.37;;;0.93;;
4738;SDS011;2383;48.632;10.156;2023-04-01T00:57:43;1.93;;;0.83;;
4738;SDS011;2383;48.632;10.156;2023-04-01T01:01:47;1.37;;;0.93;;
4738;SDS011;2383;48.632;10.156;2023-04-01T01:05:55;2.33;;;0.80;;
4738;SDS011;2383;48.632;10.156;2023-04-01T01:18:38;2.30;;;0.80;;
4738;SDS011;2383;48.632;10.156;2023-04-01T01:27:21;1.60;;;0.70;;
4738;SDS011;2383;48.632;10.156;2023-04-01T01:35:51;0.93;;;0.60;;
4738;SDS011;2383;48.632;10.156;2023-04-01T01:39:58;2.27;;;0.70;;
4738;SDS011;2383;48.632;10.156;2023-04-01T01:44:05;3.27;;;0.70;;
4738;SDS011;2383;48.632;10.156;2023-04-01T01:48:09;1.73;;;0.90;;
4738;SDS011;2383;48.632;10.156;2023-04-01T01:52:13;0.97;;;0.70;;
4738;SDS011;2383;48.632;10.156;2023-04-01T01:56:15;1.23;;;0.70;;
4738;SDS011;2383;48.632;10.156;2023-04-01T02:00:23;1.33;;;1.10;;
4738;SDS011;2383;48.632;10.156;2023-04-01T02:04:25;2.40;;;0.77;;
4738;SDS011;2383;48.632;10.156;2023-04-01T02:13:19;2.40;;;0.87;;
4738;SDS011;2383;48.632;10.156;2023-04-01T02:17:34;0.80;;;0.70;;
4738;SDS011;2383;48.632;10.156;2023-04-01T02:21:41;3.63;;;1.10;;
4738;SDS011;2383;48.632;10.156;2023-04-01T02:25:45;1.17;;;0.80;;
4738;SDS011;2383;48.632;10.156;2023-04-01T02:29:49;1.93;;;0.73;;
4738;SDS011;2383;48.632;10.156;2023-04-01T02:33:51;1.67;;;0.60;;
4738;SDS011;2383;48.632;10.156;2023-04-01T02:37:54;1.33;;;0.63;;
4738;SDS011;2383;48.632;10.156;2023-04-01T02:41:57;2.83;;;0.70;;
4738;SDS011;2383;48.632;10.156;2023-04-01T02:45:59;1.27;;;0.83;;
4738;SDS011;2383;48.632;10.156;2023-04-01T02:50:01;2.40;;;1.00;;
4738;SDS011;2383;48.632;10.156;2023-04-01T02:54:03;0.70;;;0.70;;
4738;SDS011;2383;48.632;10.156;2023-04-01T02:58:05;0.73;;;0.60;;
4738;SDS011;2383;48.632;10.156;2023-04-01T03:02:08;1.07;;;0.77;;
4738;SDS011;2383;48.632;10.156;2023-04-01T03:06:11;0.73;;;0.70;;
4738;SDS011;2383;48.632;10.156;2023-04-01T03:10:14;0.67;;;0.60;;
4738;SDS011;2383;48.632;10.156;2023-04-01T03:14:16;3.10;;;0.67;;
4738;SDS011;2383;48.632;10.156;2023-04-01T03:18:18;1.00;;;0.60;;
4738;SDS011;2383;48.632;10.156;2023-04-01T03:22:21;0.73;;;0.57;;
4738;SDS011;2383;48.632;10.156;2023-04-01T03:26:22;1.37;;;0.60;;
4738;SDS011;2383;48.632;10.156;2023-04-01T03:30:25;0.83;;;0.50;;
4738;SDS011;2383;48.632;10.156;2023-04-01T03:34:27;1.27;;;0.60;;
4738;SDS011;2383;48.632;10.156;2023-04-01T03:38:30;0.83;;;0.60;;
4738;SDS011;2383;48.632;10.156;2023-04-01T03:42:31;0.63;;;0.50;;
4738;SDS011;2383;48.632;10.156;2023-04-01T03:46:34;1.40;;;0.60;;
4738;SDS011;2383;48.632;10.156;2023-04-01T03:50:36;0.60;;;0.47;;
4738;SDS011;2383;48.632;10.156;2023-04-01T03:54:38;0.70;;;0.50;;
4738;SDS011;2383;48.632;10.156;2023-04-01T03:58:40;1.47;;;0.53;;
4738;SDS011;2383;48.632;10.156;2023-04-01T04:02:44;1.40;;;0.60;;
4738;SDS011;2383;48.632;10.156;2023-04-01T04:06:50;1.00;;;0.70;;
4738;SDS011;2383;48.632;10.156;2023-04-01T04:10:55;0.47;;;0.47;;
4738;SDS011;2383;48.632;10.156;2023-04-01T04:14:57;0.63;;;0.50;;
4738;SDS011;2383;48.632;10.156;2023-04-01T04:18:59;1.07;;;0.57;;
4738;SDS011;2383;48.632;10.156;2023-04-01T04:23:01;0.63;;;0.50;;
4738;SDS011;2383;48.632;10.156;2023-04-01T04:27:03;0.67;;;0.60;;
4738;SDS011;2383;48.632;10.156;2023-04-01T04:31:06;0.40;;;0.40;;
4738;SDS011;2383;48.632;10.156;2023-04-01T04:35:09;0.70;;;0.60;;
4738;SDS011;2383;48.632;10.156;2023-04-01T04:39:11;0.60;;;0.50;;
4738;SDS011;2383;48.632;10.156;2023-04-01T04:43:15;1.13;;;0.60;;
4738;SDS011;2383;48.632;10.156;2023-04-01T04:47:18;0.40;;;0.40;;
4738;SDS011;2383;48.632;10.156;2023-04-01T04:51:21;0.87;;;0.60;;
4738;SDS011;2383;48.632;10.156;2023-04-01T04:55:24;0.60;;;0.60;;
4738;SDS011;2383;48.632;10.156;2023-04-01T04:59:45;0.70;;;0.70;;
4738;SDS011;2383;48.632;10.156;2023-04-01T05:03:57;0.50;;;0.50;;
4738;SDS011;2383;48.632;10.156;2023-04-01T05:07:59;1.50;;;0.50;;
4738;SDS011;2383;48.632;10.156;2023-04-01T05:12:02;0.40;;;0.40;;
4738;SDS011;2383;48.632;10.156;2023-04-01T05:16:19;0.50;;;0.50;;
4738;SDS011;2383;48.632;10.156;2023-04-01T05:20:21;0.77;;;0.70;;
4738;SDS011;2383;48.632;10.156;2023-04-01T05:24:24;1.47;;;0.60;;
4738;SDS011;2383;48.632;10.156;2023-04-01T05:28:26;1.37;;;0.80;;
4738;SDS011;2383;48.632;10.156;2023-04-01T05:32:28;3.23;;;1.57;;
4738;SDS011;2383;48.632;10.156;2023-04-01T05:36:32;1.30;;;0.80;;
4738;SDS011;2383;48.632;10.156;2023-04-01T05:40:34;1.53;;;0.90;;
4738;SDS011;2383;48.632;10.156;2023-04-01T05:44:36;0.80;;;0.70;;
4738;SDS011;2383;48.632;10.156;2023-04-01T05:48:41;1.43;;;0.70;;
4738;SDS011;2383;48.632;10.156;2023-04-01T05:52:43;0.90;;;0.70;;
4738;SDS011;2383;48.632;10.156;2023-04-01T05:56:46;2.73;;;1.00;;
4738;SDS011;2383;48.632;10.156;2023-04-01T06:00:49;1.53;;;1.30;;
4738;SDS011;2383;48.632;10.156;2023-04-01T06:05:17;1.40;;;1.20;;
4738;SDS011;2383;48.632;10.156;2023-04-01T06:09:25;7.73;;;2.77;;
4738;SDS011;2383;48.632;10.156;2023-04-01T06:13:33;2.43;;;1.70;;
4738;SDS011;2383;48.632;10.156;2023-04-01T06:22:26;4.30;;;1.67;;
4738;SDS011;2383;48.632;10.156;2023-04-01T06:26:54;1.83;;;1.50;;
4738;SDS011;2383;48.632;10.156;2023-04-01T06:54:20;1.17;;;0.70;;
4738;SDS011;2383;48.632;10.156;2023-04-01T07:07:41;1.53;;;0.70;;
4738;SDS011;2383;48.632;10.156;2023-04-01T07:11:47;1.37;;;0.80;;
4738;SDS011;2383;48.632;10.156;2023-04-01T07:16:15;3.03;;;0.90;;
4738;SDS011;2383;48.632;10.156;2023-04-01T07:20:37;1.80;;;1.13;;
4738;SDS011;2383;48.632;10.156;2023-04-01T07:24:40;1.13;;;1.00;;
4738;SDS011;2383;48.632;10.156;2023-04-01T07:28:44;2.00;;;1.10;;
4738;SDS011;2383;48.632;10.156;2023-04-01T07:37:22;3.92;;;1.10;;
4738;SDS011;2383;48.632;10.156;2023-04-01T07:45:50;2.50;;;1.00;;
4738;SDS011;2383;48.632;10.156;2023-04-01T07:58:31;2.70;;;0.90;;
4738;SDS011;2383;48.632;10.156;2023-04-01T08:03:21;3.07;;;1.00;;
4738;SDS011;2383;48.632;10.156;2023-04-01T08:21:21;2.00;;;0.53;;
4738;SDS011;2383;48.632;10.156;2023-04-01T08:26:03;1.60;;;0.57;;
4738;SDS011;2383;48.632;10.156;2023-04-01T08:30:28;0.77;;;0.70;;
4738;SDS011;2383;48.632;10.156;2023-04-01T08:34:45;1.63;;;0.70;;
4738;SDS011;2383;48.632;10.156;2023-04-01T08:39:04;2.30;;;1.13;;
4738;SDS011;2383;48.632;10.156;2023-04-01T08:43:16;2.40;;;0.80;;
4738;SDS011;2383;48.632;10.156;2023-04-01T09:14:09;2.22;;;1.13;;
4738;SDS011;2383;48.632;10.156;2023-04-01T09:40:59;2.80;;;1.00;;
4738;SDS011;2383;48.632;10.156;2023-04-01T10:16:38;0.80;;;0.80;;
4738;SDS011;2383;48.632;10.156;2023-04-01T10:20:50;0.75;;;0.60;;
4738;SDS011;2383;48.632;10.156;2023-04-01T10:30:05;1.73;;;0.60;;
4738;SDS011;2383;48.632;10.156;2023-04-01T10:44:26;0.60;;;0.60;;
4738;SDS011;2383;48.632;10.156;2023-04-01T11:16:55;1.47;;;1.00;;
4738;SDS011;2383;48.632;10.156;2023-04-01T11:39:42;1.97;;;0.67;;
4738;SDS011;2383;48.632;10.156;2023-04-01T11:44:38;1.03;;;0.70;;
4738;SDS011;2383;48.632;10.156;2023-04-01T11:49:02;0.60;;;0.60;;
4738;SDS011;2383;48.632;10.156;2023-04-01T11:53:29;0.80;;;0.80;;
4738;SDS011;2383;48.632;10.156;2023-04-01T12:15:00;1.40;;;0.70;;
4738;SDS011;2383;48.632;10.156;2023-04-01T12:19:29;1.00;;;0.80;;
4738;SDS011;2383;48.632;10.156;2023-04-01T12:28:08;1.27;;;0.73;;
4738;SDS011;2383;48.632;10.156;2023-04-01T12:45:27;0.60;;;0.60;;
4738;SDS011;2383;48.632;10.156;2023-04-01T13:12:16;0.70;;;0.70;;
4738;SDS011;2383;48.632;10.156;2023-04-01T13:16:29;0.90;;;0.80;;
4738;SDS011;2383;48.632;10.156;2023-04-01T13:25:32;1.20;;;0.90;;
4738;SDS011;2383;48.632;10.156;2023-04-01T13:29:43;0.97;;;0.90;;
4738;SDS011;2383;48.632;10.156;2023-04-01T13:42:33;0.70;;;0.63;;
4738;SDS011;2383;48.632;10.156;2023-04-01T13:46:48;0.60;;;0.60;;
4738;SDS011;2383;48.632;10.156;2023-04-01T13:55:44;0.80;;;0.73;;
4738;SDS011;2383;48.632;10.156;2023-04-01T14:09:28;0.77;;;0.77;;
4738;SDS011;2383;48.632;10.156;2023-04-01T14:13:43;0.50;;;0.50;;
4738;SDS011;2383;48.632;10.156;2023-04-01T14:48:21;0.50;;;0.50;;
4738;SDS011;2383;48.632;10.156;2023-04-01T15:05:49;0.90;;;0.80;;
4738;SDS011;2383;48.632;10.156;2023-04-01T15:10:04;0.70;;;0.70;;
4738;SDS011;2383;48.632;10.156;2023-04-01T15:14:26;0.80;;;0.70;;
4738;SDS011;2383;48.632;10.156;2023-04-01T15:19:03;0.77;;;0.77;;
4738;SDS011;2383;48.632;10.156;2023-04-01T15:23:35;2.00;;;0.90;;
4738;SDS011;2383;48.632;10.156;2023-04-01T15:49:11;1.07;;;0.80;;
4738;SDS011;2383;48.632;10.156;2023-04-01T15:53:18;1.80;;;1.40;;
4738;SDS011;2383;48.632;10.156;2023-04-01T16:06:02;1.53;;;1.43;;
4738;SDS011;2383;48.632;10.156;2023-04-01T16:19:23;1.10;;;1.00;;
4738;SDS011;2383;48.632;10.156;2023-04-01T16:37:13;0.77;;;0.77;;
4738;SDS011;2383;48.632;10.156;2023-04-01T16:41:25;1.53;;;1.20;;
4738;SDS011;2383;48.632;10.156;2023-04-01T16:45:38;1.10;;;1.00;;
4738;SDS011;2383;48.632;10.156;2023-04-01T16:54:57;0.83;;;0.80;;
4738;SDS011;2383;48.632;10.156;2023-04-01T17:07:25;0.87;;;0.83;;
4738;SDS011;2383;48.632;10.156;2023-04-01T17:24:43;3.83;;;1.70;;
4738;SDS011;2383;48.632;10.156;2023-04-01T17:29:24;2.17;;;1.70;;
4738;SDS011;2383;48.632;10.156;2023-04-01T17:51:30;3.27;;;2.10;;
4738;SDS011;2383;48.632;10.156;2023-04-01T18:00:37;1.90;;;1.70;;
4738;SDS011;2383;48.632;10.156;2023-04-01T18:05:04;2.23;;;2.03;;
4738;SDS011;2383;48.632;10.156;2023-04-01T18:27:33;3.20;;;1.93;;
4738;SDS011;2383;48.632;10.156;2023-04-01T18:31:42;4.23;;;3.33;;
4738;SDS011;2383;48.632;10.156;2023-04-01T18:35:47;6.57;;;5.33;;
4738;SDS011;2383;48.632;10.156;2023-04-01T18:40:03;7.67;;;4.03;;
4738;SDS011;2383;48.632;10.156;2023-04-01T18:48:49;2.43;;;1.30;;
4738;SDS011;2383;48.632;10.156;2023-04-01T18:52:58;5.47;;;3.80;;
4738;SDS011;2383;48.632;10.156;2023-04-01T18:57:12;3.97;;;3.30;;
4738;SDS011;2383;48.632;10.156;2023-04-01T19:05:30;6.27;;;4.73;;
4738;SDS011;2383;48.632;10.156;2023-04-01T19:09:45;7.23;;;4.00;;
4738;SDS011;2383;48.632;10.156;2023-04-01T19:31:36;3.07;;;1.37;;
4738;SDS011;2383;48.632;10.156;2023-04-01T19:36:03;1.37;;;1.27;;
4738;SDS011;2383;48.632;10.156;2023-04-01T19:40:20;2.03;;;1.40;;
4738;SDS011;2383;48.632;10.156;2023-04-01T19:44:49;3.80;;;2.10;;
4738;SDS011;2383;48.632;10.156;2023-04-01T19:48:59;6.73;;;3.23;;
4738;SDS011;2383;48.632;10.156;2023-04-01T19:53:28;4.13;;;2.73;;
4738;SDS011;2383;48.632;10.156;2023-04-01T20:06:48;2.67;;;2.00;;
4738;SDS011;2383;48.632;10.156;2023-04-01T20:24:26;2.23;;;1.40;;
4738;SDS011;2383;48.632;10.156;2023-04-01T20:28:56;2.13;;;1.00;;
4738;SDS011;2383;48.632;10.156;2023-04-01T20:38:05;3.10;;;1.33;;
4738;SDS011;2383;48.632;10.156;2023-04-01T20:50:49;5.23;;;3.70;;
4738;SDS011;2383;48.632;10.156;2023-04-01T21:25:47;1.87;;;1.10;;
4738;SDS011;2383;48.632;10.156;2023-04-01T21:29:57;1.67;;;1.00;;
4738;SDS011;2383;48.632;10.156;2023-04-01T21:43:10;12.83;;;5.93;;
4738;SDS011;2383;48.632;10.156;2023-04-01T22:22:34;2.37;;;1.33;;
4738;SDS011;2383;48.632;10.156;2023-04-01T22:27:01;1.47;;;1.37;;
4738;SDS011;2383;48.632;10.156;2023-04-01T22:31:05;1.77;;;1.50;;
4738;SDS011;2383;48.632;10.156;2023-04-01T22:35:27;2.30;;;1.20;;
4738;SDS011;2383;48.632;10.156;2023-04-01T22:43:43;2.70;;;2.23;;
4738;SDS011;2383;48.632;10.156;2023-04-01T22:47:57;1.67;;;1.30;;
4738;SDS011;2383;48.632;10.156;2023-04-01T22:52:05;1.83;;;1.10;;
4738;SDS011;2383;48.632;10.156;2023-04-01T22:56:15;1.87;;;1.07;;
4738;SDS011;2383;48.632;10.156;2023-04-01T23:00:25;1.13;;;0.90;;
4738;SDS011;2383;48.632;10.156;2023-04-01T23:04:32;2.07;;;1.20;;
4738;SDS011;2383;48.632;10.156;2023-04-01T23:13:03;2.23;;;1.10;;
4738;SDS011;2383;48.632;10.156;2023-04-01T23:17:12;0.80;;;0.80;;
4738;SDS011;2383;48.632;10.156;2023-04-01T23:29:35;0.90;;;0.90;;
4738;SDS011;2383;48.632;10.156;2023-04-01T23:33:41;1.10;;;1.00;;
4738;SDS011;2383;48.632;10.156;2023-04-01T23:37:42;2.93;;;1.00;;
4738;SDS011;2383;48.632;10.156;2023-04-01T23:41:44;1.20;;;1.10;;
4738;SDS011;2383;48.632;10.156;2023-04-01T23:45:46;3.53;;;1.10;;
4738;SDS011;2383;48.632;10.156;2023-04-01T23:49:53;5.40;;;1.30;;
4738;SDS011;2383;48.632;10.156;2023-04-01T23:54:00;1.77;;;1.00;;
4738;SDS011;2383;48.632;10.156;2023-04-01T23:58:11;0.90;;;0.90;;
